sensor_id;sensor_type;location;lat;lon;timestamp;temperature;humidity
1063;DHT22;520;50.932;6.962;2022-09-13T00:01:08;20.80;93.20
1063;DHT22;520;50.932;6.962;2022-09-13T00:03:35;20.70;93.40
1063;DHT22;520;50.932;6.962;2022-09-13T00:06:12;20.90;93.90
1063;DHT22;520;50.932;6.962;2022-09-13T00:08:40;21.00;93.50
1063;DHT22;520;50.932;6.962;2022-09-13T00:11:12;20.90;93.60
1063;DHT22;520;50.932;6.962;2022-09-13T00:13:39;20.70;93.80
1063;DHT22;520;50.932;6.962;2022-09-13T00:16:12;20.60;93.80
1063;DHT22;520;50.932;6.962;2022-09-13T00:18:39;20.50;94.20
1063;DHT22;520;50.932;6.962;2022-09-13T00:21:09;20.40;94.50
1063;DHT22;520;50.932;6.962;2022-09-13T00:23:37;20.50;94.70
1063;DHT22;520;50.932;6.962;2022-09-13T00:26:09;20.70;94.30
1063;DHT22;520;50.932;6.962;2022-09-13T00:28:37;20.70;94.20
1063;DHT22;520;50.932;6.962;2022-09-13T00:31:06;20.60;94.50
1063;DHT22;520;50.932;6.962;2022-09-13T00:33:34;20.70;94.20
1063;DHT22;520;50.932;6.962;2022-09-13T00:36:05;20.60;94.20
1063;DHT22;520;50.932;6.962;2022-09-13T00:38:38;20.50;94.10
1063;DHT22;520;50.932;6.962;2022-09-13T00:41:07;20.50;94.30
1063;DHT22;520;50.932;6.962;2022-09-13T00:43:45;20.40;94.40
1063;DHT22;520;50.932;6.962;2022-09-13T00:46:20;20.40;94.60
1063;DHT22;520;50.932;6.962;2022-09-13T00:48:50;20.30;94.60
1063;DHT22;520;50.932;6.962;2022-09-13T00:51:19;20.20;95.10
1063;DHT22;520;50.932;6.962;2022-09-13T00:53:50;20.20;95.20
1063;DHT22;520;50.932;6.962;2022-09-13T00:56:23;20.10;95.30
1063;DHT22;520;50.932;6.962;2022-09-13T00:58:58;20.20;95.50
1063;DHT22;520;50.932;6.962;2022-09-13T01:01:31;20.30;95.40
1063;DHT22;520;50.932;6.962;2022-09-13T01:03:59;20.40;95.20
1063;DHT22;520;50.932;6.962;2022-09-13T01:06:27;20.30;95.10
1063;DHT22;520;50.932;6.962;2022-09-13T01:08:56;20.20;95.20
1063;DHT22;520;50.932;6.962;2022-09-13T01:14:06;20.10;95.20
1063;DHT22;520;50.932;6.962;2022-09-13T01:16:34;20.00;95.30
1063;DHT22;520;50.932;6.962;2022-09-13T01:19:01;20.10;95.30
1063;DHT22;520;50.932;6.962;2022-09-13T01:36:13;20.10;95.50
1063;DHT22;520;50.932;6.962;2022-09-13T01:39:07;20.10;95.50
1063;DHT22;520;50.932;6.962;2022-09-13T01:41:47;20.20;95.40
1063;DHT22;520;50.932;6.962;2022-09-13T01:44:38;20.20;95.20
1063;DHT22;520;50.932;6.962;2022-09-13T01:47:29;20.10;95.60
1063;DHT22;520;50.932;6.962;2022-09-13T01:52:49;20.00;96.10
1063;DHT22;520;50.932;6.962;2022-09-13T01:55:45;20.20;96.20
1063;DHT22;520;50.932;6.962;2022-09-13T01:58:30;20.20;96.00
1063;DHT22;520;50.932;6.962;2022-09-13T02:01:34;20.30;96.00
1063;DHT22;520;50.932;6.962;2022-09-13T02:04:21;20.30;96.00
1063;DHT22;520;50.932;6.962;2022-09-13T02:07:03;20.40;95.80
1063;DHT22;520;50.932;6.962;2022-09-13T02:09:34;20.20;96.10
1063;DHT22;520;50.932;6.962;2022-09-13T02:12:14;20.00;96.60
1063;DHT22;520;50.932;6.962;2022-09-13T02:14:44;19.90;96.90
1063;DHT22;520;50.932;6.962;2022-09-13T02:17:17;20.10;96.90
1063;DHT22;520;50.932;6.962;2022-09-13T02:19:53;20.10;96.80
1063;DHT22;520;50.932;6.962;2022-09-13T02:22:28;20.10;96.80
1063;DHT22;520;50.932;6.962;2022-09-13T02:25:05;20.30;96.80
1063;DHT22;520;50.932;6.962;2022-09-13T02:27:34;20.30;96.70
1063;DHT22;520;50.932;6.962;2022-09-13T02:30:08;20.40;96.40
1063;DHT22;520;50.932;6.962;2022-09-13T02:32:50;20.30;96.50
1063;DHT22;520;50.932;6.962;2022-09-13T02:35:53;20.10;96.70
1063;DHT22;520;50.932;6.962;2022-09-13T02:38:58;20.20;97.10
1063;DHT22;520;50.932;6.962;2022-09-13T02:52:35;20.30;96.60
1063;DHT22;520;50.932;6.962;2022-09-13T02:55:15;20.20;96.50
1063;DHT22;520;50.932;6.962;2022-09-13T02:58:05;20.00;96.70
1063;DHT22;520;50.932;6.962;2022-09-13T03:00:35;20.00;97.10
1063;DHT22;520;50.932;6.962;2022-09-13T03:03:04;20.10;97.20
1063;DHT22;520;50.932;6.962;2022-09-13T03:05:33;20.10;96.90
1063;DHT22;520;50.932;6.962;2022-09-13T03:08:01;20.10;96.70
1063;DHT22;520;50.932;6.962;2022-09-13T03:19:16;19.70;97.10
1063;DHT22;520;50.932;6.962;2022-09-13T03:27:53;19.20;98.20
1063;DHT22;520;50.932;6.962;2022-09-13T03:30:23;19.60;98.60
1063;DHT22;520;50.932;6.962;2022-09-13T03:33:07;19.70;98.30
1063;DHT22;520;50.932;6.962;2022-09-13T03:35:56;19.90;97.80
1063;DHT22;520;50.932;6.962;2022-09-13T03:38:33;19.90;97.20
1063;DHT22;520;50.932;6.962;2022-09-13T03:41:12;19.70;97.40
1063;DHT22;520;50.932;6.962;2022-09-13T03:43:55;19.70;97.30
1063;DHT22;520;50.932;6.962;2022-09-13T03:48:57;19.40;97.80
1063;DHT22;520;50.932;6.962;2022-09-13T03:51:26;19.50;97.70
1063;DHT22;520;50.932;6.962;2022-09-13T03:53:58;19.80;97.50
1063;DHT22;520;50.932;6.962;2022-09-13T03:56:26;19.70;97.10
1063;DHT22;520;50.932;6.962;2022-09-13T03:58:53;19.60;97.60
1063;DHT22;520;50.932;6.962;2022-09-13T04:01:22;19.80;97.40
1063;DHT22;520;50.932;6.962;2022-09-13T04:03:49;19.80;97.00
1063;DHT22;520;50.932;6.962;2022-09-13T04:06:21;19.70;97.00
1063;DHT22;520;50.932;6.962;2022-09-13T04:08:48;19.60;97.10
1063;DHT22;520;50.932;6.962;2022-09-13T04:11:15;19.50;97.40
1063;DHT22;520;50.932;6.962;2022-09-13T04:13:42;19.40;97.30
1063;DHT22;520;50.932;6.962;2022-09-13T04:16:08;19.40;97.50
1063;DHT22;520;50.932;6.962;2022-09-13T04:18:36;19.30;97.50
1063;DHT22;520;50.932;6.962;2022-09-13T04:21:03;19.30;97.40
1063;DHT22;520;50.932;6.962;2022-09-13T04:23:30;19.30;97.40
1063;DHT22;520;50.932;6.962;2022-09-13T04:26:02;19.30;97.50
1063;DHT22;520;50.932;6.962;2022-09-13T04:28:30;19.40;97.50
1063;DHT22;520;50.932;6.962;2022-09-13T04:30:57;19.60;97.30
1063;DHT22;520;50.932;6.962;2022-09-13T04:33:27;19.70;96.90
1063;DHT22;520;50.932;6.962;2022-09-13T04:35:59;19.90;96.70
1063;DHT22;520;50.932;6.962;2022-09-13T04:38:26;19.90;96.00
1063;DHT22;520;50.932;6.962;2022-09-13T04:40:54;19.70;96.10
1063;DHT22;520;50.932;6.962;2022-09-13T04:43:21;19.60;96.40
1063;DHT22;520;50.932;6.962;2022-09-13T04:45:48;19.70;96.70
1063;DHT22;520;50.932;6.962;2022-09-13T04:48:15;19.70;96.90
1063;DHT22;520;50.932;6.962;2022-09-13T04:50:42;19.70;96.80
1063;DHT22;520;50.932;6.962;2022-09-13T04:53:09;19.80;96.70
1063;DHT22;520;50.932;6.962;2022-09-13T04:55:36;20.00;96.00
1063;DHT22;520;50.932;6.962;2022-09-13T04:58:17;19.90;95.90
1063;DHT22;520;50.932;6.962;2022-09-13T05:00:47;19.90;95.60
1063;DHT22;520;50.932;6.962;2022-09-13T05:03:17;20.00;95.50
1063;DHT22;520;50.932;6.962;2022-09-13T05:05:45;20.00;95.30
1063;DHT22;520;50.932;6.962;2022-09-13T05:08:17;20.00;95.40
1063;DHT22;520;50.932;6.962;2022-09-13T05:10:47;19.90;95.40
1063;DHT22;520;50.932;6.962;2022-09-13T05:13:17;19.70;95.40
1063;DHT22;520;50.932;6.962;2022-09-13T05:15:54;19.50;95.80
1063;DHT22;520;50.932;6.962;2022-09-13T05:18:35;19.70;95.80
1063;DHT22;520;50.932;6.962;2022-09-13T05:21:15;19.70;95.60
1063;DHT22;520;50.932;6.962;2022-09-13T05:23:52;19.60;95.70
1063;DHT22;520;50.932;6.962;2022-09-13T05:26:21;19.60;96.00
1063;DHT22;520;50.932;6.962;2022-09-13T05:28:53;19.80;95.80
1063;DHT22;520;50.932;6.962;2022-09-13T05:31:22;19.80;95.50
1063;DHT22;520;50.932;6.962;2022-09-13T05:33:59;19.90;95.40
1063;DHT22;520;50.932;6.962;2022-09-13T05:36:29;19.90;95.40
1063;DHT22;520;50.932;6.962;2022-09-13T05:39:15;19.80;95.50
1063;DHT22;520;50.932;6.962;2022-09-13T05:42:05;19.70;96.00
1063;DHT22;520;50.932;6.962;2022-09-13T05:44:35;19.90;96.20
1063;DHT22;520;50.932;6.962;2022-09-13T05:47:05;19.90;96.30
1063;DHT22;520;50.932;6.962;2022-09-13T05:49:36;19.70;96.40
1063;DHT22;520;50.932;6.962;2022-09-13T05:52:28;19.70;96.40
1063;DHT22;520;50.932;6.962;2022-09-13T05:54:59;19.50;96.90
1063;DHT22;520;50.932;6.962;2022-09-13T06:00:38;19.60;96.70
1063;DHT22;520;50.932;6.962;2022-09-13T06:03:06;19.40;97.20
1063;DHT22;520;50.932;6.962;2022-09-13T06:05:40;19.20;97.70
1063;DHT22;520;50.932;6.962;2022-09-13T06:08:10;19.50;97.80
1063;DHT22;520;50.932;6.962;2022-09-13T06:10:38;19.50;97.40
1063;DHT22;520;50.932;6.962;2022-09-13T06:13:08;19.50;97.40
1063;DHT22;520;50.932;6.962;2022-09-13T06:15:46;19.60;97.10
1063;DHT22;520;50.932;6.962;2022-09-13T06:18:14;19.70;97.20
1063;DHT22;520;50.932;6.962;2022-09-13T06:20:48;19.60;97.20
1063;DHT22;520;50.932;6.962;2022-09-13T06:23:19;19.50;97.30
1063;DHT22;520;50.932;6.962;2022-09-13T06:25:47;19.40;97.50
1063;DHT22;520;50.932;6.962;2022-09-13T06:28:17;19.60;97.80
1063;DHT22;520;50.932;6.962;2022-09-13T06:30:47;19.70;97.40
1063;DHT22;520;50.932;6.962;2022-09-13T06:33:24;19.80;97.40
1063;DHT22;520;50.932;6.962;2022-09-13T06:35:54;19.60;97.50
1063;DHT22;520;50.932;6.962;2022-09-13T06:38:25;19.70;97.80
1063;DHT22;520;50.932;6.962;2022-09-13T06:41:07;19.60;98.00
1063;DHT22;520;50.932;6.962;2022-09-13T06:43:55;19.70;98.50
1063;DHT22;520;50.932;6.962;2022-09-13T06:46:24;19.80;98.20
1063;DHT22;520;50.932;6.962;2022-09-13T06:48:54;20.00;98.00
1063;DHT22;520;50.932;6.962;2022-09-13T06:51:24;20.10;97.50
1063;DHT22;520;50.932;6.962;2022-09-13T06:54:04;20.00;97.40
1063;DHT22;520;50.932;6.962;2022-09-13T06:56:36;20.00;97.40
1063;DHT22;520;50.932;6.962;2022-09-13T06:59:09;19.90;97.60
1063;DHT22;520;50.932;6.962;2022-09-13T07:01:43;19.90;97.50
1063;DHT22;520;50.932;6.962;2022-09-13T07:04:14;19.80;97.70
1063;DHT22;520;50.932;6.962;2022-09-13T07:06:45;19.90;97.70
1063;DHT22;520;50.932;6.962;2022-09-13T07:09:22;19.80;97.70
1063;DHT22;520;50.932;6.962;2022-09-13T07:11:55;19.90;97.70
1063;DHT22;520;50.932;6.962;2022-09-13T07:14:26;19.90;97.30
1063;DHT22;520;50.932;6.962;2022-09-13T07:17:00;20.00;97.40
1063;DHT22;520;50.932;6.962;2022-09-13T07:19:36;20.10;97.30
1063;DHT22;520;50.932;6.962;2022-09-13T07:22:03;20.30;96.60
1063;DHT22;520;50.932;6.962;2022-09-13T07:24:32;20.40;96.50
1063;DHT22;520;50.932;6.962;2022-09-13T07:27:02;20.30;96.50
1063;DHT22;520;50.932;6.962;2022-09-13T07:29:29;20.20;96.70
1063;DHT22;520;50.932;6.962;2022-09-13T07:31:59;20.20;97.00
1063;DHT22;520;50.932;6.962;2022-09-13T07:34:26;20.60;96.50
1063;DHT22;520;50.932;6.962;2022-09-13T07:36:56;20.80;96.00
1063;DHT22;520;50.932;6.962;2022-09-13T07:39:23;20.60;96.00
1063;DHT22;520;50.932;6.962;2022-09-13T07:41:50;21.10;95.30
1063;DHT22;520;50.932;6.962;2022-09-13T07:44:22;21.20;95.00
1063;DHT22;520;50.932;6.962;2022-09-13T07:46:49;21.00;95.30
1063;DHT22;520;50.932;6.962;2022-09-13T07:49:19;21.30;95.10
1063;DHT22;520;50.932;6.962;2022-09-13T07:51:51;21.60;94.50
1063;DHT22;520;50.932;6.962;2022-09-13T07:54:26;21.70;94.40
1063;DHT22;520;50.932;6.962;2022-09-13T07:56:59;22.00;94.00
1063;DHT22;520;50.932;6.962;2022-09-13T07:59:28;22.10;93.50
1063;DHT22;520;50.932;6.962;2022-09-13T08:02:04;22.10;93.20
1063;DHT22;520;50.932;6.962;2022-09-13T08:04:43;22.00;93.50
1063;DHT22;520;50.932;6.962;2022-09-13T08:07:12;22.10;93.30
1063;DHT22;520;50.932;6.962;2022-09-13T08:09:45;22.20;93.10
1063;DHT22;520;50.932;6.962;2022-09-13T08:12:14;22.10;93.10
1063;DHT22;520;50.932;6.962;2022-09-13T08:14:45;22.30;92.90
1063;DHT22;520;50.932;6.962;2022-09-13T08:20:05;22.60;92.20
1063;DHT22;520;50.932;6.962;2022-09-13T08:22:50;22.60;92.30
1063;DHT22;520;50.932;6.962;2022-09-13T08:25:25;22.50;92.60
1063;DHT22;520;50.932;6.962;2022-09-13T08:28:07;22.80;92.10
1063;DHT22;520;50.932;6.962;2022-09-13T08:30:41;22.80;91.40
1063;DHT22;520;50.932;6.962;2022-09-13T08:33:29;23.10;91.10
1063;DHT22;520;50.932;6.962;2022-09-13T08:36:12;23.20;90.50
1063;DHT22;520;50.932;6.962;2022-09-13T08:38:54;23.20;90.90
1063;DHT22;520;50.932;6.962;2022-09-13T08:47:18;23.50;90.40
1063;DHT22;520;50.932;6.962;2022-09-13T08:56:07;23.70;88.90
1063;DHT22;520;50.932;6.962;2022-09-13T09:07:53;24.30;86.20
1063;DHT22;520;50.932;6.962;2022-09-13T09:10:55;24.40;85.30
1063;DHT22;520;50.932;6.962;2022-09-13T09:13:36;24.40;85.10
1063;DHT22;520;50.932;6.962;2022-09-13T09:16:35;24.20;85.20
1063;DHT22;520;50.932;6.962;2022-09-13T09:19:26;24.40;85.40
1063;DHT22;520;50.932;6.962;2022-09-13T09:22:24;25.10;83.20
1063;DHT22;520;50.932;6.962;2022-09-13T09:25:13;25.00;82.20
1063;DHT22;520;50.932;6.962;2022-09-13T09:27:51;25.30;80.80
1063;DHT22;520;50.932;6.962;2022-09-13T09:40:15;25.60;78.70
1063;DHT22;520;50.932;6.962;2022-09-13T09:43:31;26.30;76.40
1063;DHT22;520;50.932;6.962;2022-09-13T09:46:09;27.30;72.20
1063;DHT22;520;50.932;6.962;2022-09-13T09:52:14;28.10;66.20
1063;DHT22;520;50.932;6.962;2022-09-13T09:58:16;28.90;63.30
1063;DHT22;520;50.932;6.962;2022-09-13T10:00:58;29.80;58.80
1063;DHT22;520;50.932;6.962;2022-09-13T10:06:30;29.90;57.00
1063;DHT22;520;50.932;6.962;2022-09-13T10:09:24;29.80;56.50
1063;DHT22;520;50.932;6.962;2022-09-13T10:12:01;31.00;55.60
1063;DHT22;520;50.932;6.962;2022-09-13T10:14:43;31.80;53.20
1063;DHT22;520;50.932;6.962;2022-09-13T10:17:27;32.80;50.50
1063;DHT22;520;50.932;6.962;2022-09-13T10:20:19;32.70;49.80
1063;DHT22;520;50.932;6.962;2022-09-13T10:23:19;31.30;51.30
1063;DHT22;520;50.932;6.962;2022-09-13T10:26:15;31.80;52.20
1063;DHT22;520;50.932;6.962;2022-09-13T10:28:59;32.60;49.50
1063;DHT22;520;50.932;6.962;2022-09-13T10:31:57;32.20;50.30
1063;DHT22;520;50.932;6.962;2022-09-13T10:34:34;31.80;50.50
1063;DHT22;520;50.932;6.962;2022-09-13T10:37:28;31.00;52.20
1063;DHT22;520;50.932;6.962;2022-09-13T10:40:07;30.80;52.60
1063;DHT22;520;50.932;6.962;2022-09-13T10:42:38;30.80;52.80
1063;DHT22;520;50.932;6.962;2022-09-13T10:45:07;30.40;53.30
1063;DHT22;520;50.932;6.962;2022-09-13T10:53:43;29.30;55.90
1063;DHT22;520;50.932;6.962;2022-09-13T10:56:28;28.80;56.90
1063;DHT22;520;50.932;6.962;2022-09-13T10:59:25;28.50;57.60
1063;DHT22;520;50.932;6.962;2022-09-13T11:06:19;27.70;58.90
1063;DHT22;520;50.932;6.962;2022-09-13T11:17:32;28.90;57.10
1063;DHT22;520;50.932;6.962;2022-09-13T11:20:27;28.70;57.00
1063;DHT22;520;50.932;6.962;2022-09-13T11:28:53;28.10;58.20
1063;DHT22;520;50.932;6.962;2022-09-13T11:31:57;27.80;58.90
1063;DHT22;520;50.932;6.962;2022-09-13T11:34:40;27.70;58.30
1063;DHT22;520;50.932;6.962;2022-09-13T11:37:39;27.60;58.70
1063;DHT22;520;50.932;6.962;2022-09-13T11:43:18;28.10;58.10
1063;DHT22;520;50.932;6.962;2022-09-13T11:46:09;28.20;58.30
1063;DHT22;520;50.932;6.962;2022-09-13T11:49:02;28.40;57.70
1063;DHT22;520;50.932;6.962;2022-09-13T11:57:47;29.90;54.30
1063;DHT22;520;50.932;6.962;2022-09-13T12:00:49;30.00;54.00
1063;DHT22;520;50.932;6.962;2022-09-13T12:06:31;31.90;50.50
1063;DHT22;520;50.932;6.962;2022-09-13T12:09:26;31.80;50.00
1063;DHT22;520;50.932;6.962;2022-09-13T12:12:04;31.80;49.30
1063;DHT22;520;50.932;6.962;2022-09-13T12:14:52;31.60;48.90
1063;DHT22;520;50.932;6.962;2022-09-13T12:17:44;31.40;49.60
1063;DHT22;520;50.932;6.962;2022-09-13T12:20:45;31.20;49.60
1063;DHT22;520;50.932;6.962;2022-09-13T12:23:41;31.00;50.30
1063;DHT22;520;50.932;6.962;2022-09-13T12:28:58;31.00;50.50
1063;DHT22;520;50.932;6.962;2022-09-13T12:31:33;31.00;50.20
1063;DHT22;520;50.932;6.962;2022-09-13T12:34:45;30.90;50.20
1063;DHT22;520;50.932;6.962;2022-09-13T13:00:22;30.70;51.20
1063;DHT22;520;50.932;6.962;2022-09-13T13:04:00;31.30;50.70
1063;DHT22;520;50.932;6.962;2022-09-13T13:07:01;31.00;50.10
1063;DHT22;520;50.932;6.962;2022-09-13T13:09:52;30.90;50.30
1063;DHT22;520;50.932;6.962;2022-09-13T13:19:40;32.00;48.30
1063;DHT22;520;50.932;6.962;2022-09-13T13:31:34;30.70;50.20
1063;DHT22;520;50.932;6.962;2022-09-13T13:39:51;29.50;51.80
1063;DHT22;520;50.932;6.962;2022-09-13T13:46:26;30.00;51.80
1063;DHT22;520;50.932;6.962;2022-09-13T13:54:58;29.40;52.50
1063;DHT22;520;50.932;6.962;2022-09-13T14:00:50;29.40;53.10
1063;DHT22;520;50.932;6.962;2022-09-13T14:03:48;29.50;53.10
1063;DHT22;520;50.932;6.962;2022-09-13T14:06:53;29.60;52.70
1063;DHT22;520;50.932;6.962;2022-09-13T14:10:00;29.90;52.70
1063;DHT22;520;50.932;6.962;2022-09-13T14:21:01;29.80;52.20
1063;DHT22;520;50.932;6.962;2022-09-13T14:23:33;29.80;52.30
1063;DHT22;520;50.932;6.962;2022-09-13T14:26:12;29.70;52.60
1063;DHT22;520;50.932;6.962;2022-09-13T14:28:46;29.80;52.80
1063;DHT22;520;50.932;6.962;2022-09-13T14:31:21;29.80;53.10
1063;DHT22;520;50.932;6.962;2022-09-13T14:33:56;29.80;52.80
1063;DHT22;520;50.932;6.962;2022-09-13T14:36:25;29.70;53.20
1063;DHT22;520;50.932;6.962;2022-09-13T14:39:12;29.50;53.40
1063;DHT22;520;50.932;6.962;2022-09-13T14:44:43;29.50;54.00
1063;DHT22;520;50.932;6.962;2022-09-13T14:47:20;29.80;53.80
1063;DHT22;520;50.932;6.962;2022-09-13T14:50:12;30.00;53.70
1063;DHT22;520;50.932;6.962;2022-09-13T14:52:55;29.90;53.30
1063;DHT22;520;50.932;6.962;2022-09-13T14:55:55;30.10;53.00
1063;DHT22;520;50.932;6.962;2022-09-13T14:59:01;30.20;53.00
1063;DHT22;520;50.932;6.962;2022-09-13T15:01:38;30.30;52.70
1063;DHT22;520;50.932;6.962;2022-09-13T15:04:18;30.20;52.60
1063;DHT22;520;50.932;6.962;2022-09-13T15:07:36;30.00;53.00
1063;DHT22;520;50.932;6.962;2022-09-13T15:10:24;29.70;53.60
1063;DHT22;520;50.932;6.962;2022-09-13T15:13:18;29.40;54.20
1063;DHT22;520;50.932;6.962;2022-09-13T15:16:28;29.30;54.90
1063;DHT22;520;50.932;6.962;2022-09-13T15:19:25;29.50;54.50
1063;DHT22;520;50.932;6.962;2022-09-13T15:22:29;29.40;54.60
1063;DHT22;520;50.932;6.962;2022-09-13T15:25:18;29.20;55.30
1063;DHT22;520;50.932;6.962;2022-09-13T15:28:29;29.20;55.40
1063;DHT22;520;50.932;6.962;2022-09-13T15:31:03;29.30;55.10
1063;DHT22;520;50.932;6.962;2022-09-13T15:38:06;29.10;55.20
1063;DHT22;520;50.932;6.962;2022-09-13T15:41:15;28.70;55.90
1063;DHT22;520;50.932;6.962;2022-09-13T15:43:53;28.50;56.20
1063;DHT22;520;50.932;6.962;2022-09-13T15:49:34;28.30;57.40
1063;DHT22;520;50.932;6.962;2022-09-13T15:52:22;28.10;57.70
1063;DHT22;520;50.932;6.962;2022-09-13T15:55:12;28.10;58.50
1063;DHT22;520;50.932;6.962;2022-09-13T15:57:46;28.00;59.10
1063;DHT22;520;50.932;6.962;2022-09-13T16:00:35;27.90;60.90
1063;DHT22;520;50.932;6.962;2022-09-13T16:03:29;27.90;60.50
1063;DHT22;520;50.932;6.962;2022-09-13T16:06:13;27.70;60.50
1063;DHT22;520;50.932;6.962;2022-09-13T16:09:23;27.80;61.80
1063;DHT22;520;50.932;6.962;2022-09-13T16:12:27;27.80;60.90
1063;DHT22;520;50.932;6.962;2022-09-13T16:15:14;27.90;61.30
1063;DHT22;520;50.932;6.962;2022-09-13T16:18:13;27.90;60.50
1063;DHT22;520;50.932;6.962;2022-09-13T16:21:00;27.80;60.60
1063;DHT22;520;50.932;6.962;2022-09-13T16:23:52;27.70;60.90
1063;DHT22;520;50.932;6.962;2022-09-13T16:26:32;27.60;61.10
1063;DHT22;520;50.932;6.962;2022-09-13T16:29:05;27.40;61.60
1063;DHT22;520;50.932;6.962;2022-09-13T16:31:54;27.30;61.70
1063;DHT22;520;50.932;6.962;2022-09-13T16:34:54;27.40;62.40
1063;DHT22;520;50.932;6.962;2022-09-13T16:37:36;27.30;62.70
1063;DHT22;520;50.932;6.962;2022-09-13T16:40:19;27.30;62.70
1063;DHT22;520;50.932;6.962;2022-09-13T16:43:04;27.30;62.80
1063;DHT22;520;50.932;6.962;2022-09-13T16:45:40;27.20;62.60
1063;DHT22;520;50.932;6.962;2022-09-13T16:48:37;27.20;62.90
1063;DHT22;520;50.932;6.962;2022-09-13T16:51:32;27.10;64.70
1063;DHT22;520;50.932;6.962;2022-09-13T16:54:30;27.10;66.10
1063;DHT22;520;50.932;6.962;2022-09-13T16:57:03;27.00;66.60
1063;DHT22;520;50.932;6.962;2022-09-13T16:59:59;26.80;66.40
1063;DHT22;520;50.932;6.962;2022-09-13T17:02:51;26.80;67.60
1063;DHT22;520;50.932;6.962;2022-09-13T17:08:25;26.60;71.50
1063;DHT22;520;50.932;6.962;2022-09-13T17:11:46;26.60;72.30
1063;DHT22;520;50.932;6.962;2022-09-13T17:14:43;26.60;74.20
1063;DHT22;520;50.932;6.962;2022-09-13T17:17:16;26.50;74.50
1063;DHT22;520;50.932;6.962;2022-09-13T17:20:07;26.50;75.90
1063;DHT22;520;50.932;6.962;2022-09-13T17:22:38;26.40;76.30
1063;DHT22;520;50.932;6.962;2022-09-13T17:25:09;26.30;76.50
1063;DHT22;520;50.932;6.962;2022-09-13T17:27:58;26.30;77.80
1063;DHT22;520;50.932;6.962;2022-09-13T17:30:38;26.10;78.70
1063;DHT22;520;50.932;6.962;2022-09-13T17:33:26;26.10;80.60
1063;DHT22;520;50.932;6.962;2022-09-13T17:36:22;26.10;80.80
1063;DHT22;520;50.932;6.962;2022-09-13T17:38:59;26.20;80.60
1063;DHT22;520;50.932;6.962;2022-09-13T17:41:57;26.10;81.60
1063;DHT22;520;50.932;6.962;2022-09-13T17:44:30;25.90;82.80
1063;DHT22;520;50.932;6.962;2022-09-13T17:47:06;25.80;83.90
1063;DHT22;520;50.932;6.962;2022-09-13T17:49:57;25.70;85.20
1063;DHT22;520;50.932;6.962;2022-09-13T18:00:23;25.20;90.40
1063;DHT22;520;50.932;6.962;2022-09-13T18:03:24;25.10;91.50
1063;DHT22;520;50.932;6.962;2022-09-13T18:06:02;25.00;92.50
1063;DHT22;520;50.932;6.962;2022-09-13T18:08:36;24.90;93.20
1063;DHT22;520;50.932;6.962;2022-09-13T18:11:14;24.90;93.40
1063;DHT22;520;50.932;6.962;2022-09-13T18:13:47;24.70;94.00
1063;DHT22;520;50.932;6.962;2022-09-13T18:16:19;24.60;94.70
1063;DHT22;520;50.932;6.962;2022-09-13T18:18:54;24.50;94.90
1063;DHT22;520;50.932;6.962;2022-09-13T18:21:23;24.60;95.30
1063;DHT22;520;50.932;6.962;2022-09-13T18:24:22;24.50;95.90
1063;DHT22;520;50.932;6.962;2022-09-13T18:27:04;24.50;96.00
1063;DHT22;520;50.932;6.962;2022-09-13T18:29:38;24.40;96.50
1063;DHT22;520;50.932;6.962;2022-09-13T18:32:17;24.40;96.60
1063;DHT22;520;50.932;6.962;2022-09-13T18:34:49;24.30;97.20
1063;DHT22;520;50.932;6.962;2022-09-13T18:37:16;24.30;97.60
1063;DHT22;520;50.932;6.962;2022-09-13T18:39:48;24.20;97.80
1063;DHT22;520;50.932;6.962;2022-09-13T18:42:28;24.10;98.10
1063;DHT22;520;50.932;6.962;2022-09-13T18:45:00;24.00;98.40
1063;DHT22;520;50.932;6.962;2022-09-13T18:47:40;23.90;98.60
1063;DHT22;520;50.932;6.962;2022-09-13T18:50:09;23.90;99.30
1063;DHT22;520;50.932;6.962;2022-09-13T18:52:44;23.90;99.20
1063;DHT22;520;50.932;6.962;2022-09-13T18:55:13;24.00;99.00
1063;DHT22;520;50.932;6.962;2022-09-13T18:57:40;24.00;98.70
1063;DHT22;520;50.932;6.962;2022-09-13T19:00:07;24.00;98.90
1063;DHT22;520;50.932;6.962;2022-09-13T19:02:34;23.90;99.00
1063;DHT22;520;50.932;6.962;2022-09-13T19:05:17;23.80;99.10
1063;DHT22;520;50.932;6.962;2022-09-13T19:07:45;23.70;99.40
1063;DHT22;520;50.932;6.962;2022-09-13T19:10:12;23.60;99.50
1063;DHT22;520;50.932;6.962;2022-09-13T19:12:42;23.60;99.30
1063;DHT22;520;50.932;6.962;2022-09-13T19:15:09;23.70;99.60
1063;DHT22;520;50.932;6.962;2022-09-13T19:17:36;23.70;99.60
1063;DHT22;520;50.932;6.962;2022-09-13T19:20:04;23.80;99.60
1063;DHT22;520;50.932;6.962;2022-09-13T19:22:32;23.80;99.50
1063;DHT22;520;50.932;6.962;2022-09-13T19:24:59;24.00;99.20
1063;DHT22;520;50.932;6.962;2022-09-13T19:27:26;24.20;98.70
1063;DHT22;520;50.932;6.962;2022-09-13T19:29:54;24.00;98.50
1063;DHT22;520;50.932;6.962;2022-09-13T19:32:22;23.90;98.70
1063;DHT22;520;50.932;6.962;2022-09-13T19:34:50;23.80;99.10
1063;DHT22;520;50.932;6.962;2022-09-13T19:37:17;23.80;99.30
1063;DHT22;520;50.932;6.962;2022-09-13T19:39:45;23.70;99.90
1063;DHT22;520;50.932;6.962;2022-09-13T19:42:12;23.60;99.90
1063;DHT22;520;50.932;6.962;2022-09-13T19:44:39;23.60;99.90
1063;DHT22;520;50.932;6.962;2022-09-13T19:47:06;23.60;99.90
1063;DHT22;520;50.932;6.962;2022-09-13T19:49:55;23.50;99.90
1063;DHT22;520;50.932;6.962;2022-09-13T19:52:21;23.40;99.90
1063;DHT22;520;50.932;6.962;2022-09-13T19:54:48;23.40;99.90
1063;DHT22;520;50.932;6.962;2022-09-13T19:57:17;23.30;99.90
1063;DHT22;520;50.932;6.962;2022-09-13T19:59:44;23.10;99.90
1063;DHT22;520;50.932;6.962;2022-09-13T20:02:12;23.00;99.90
1063;DHT22;520;50.932;6.962;2022-09-13T20:04:39;23.00;99.90
1063;DHT22;520;50.932;6.962;2022-09-13T20:07:06;22.90;99.90
1063;DHT22;520;50.932;6.962;2022-09-13T20:09:37;23.00;99.90
1063;DHT22;520;50.932;6.962;2022-09-13T20:12:05;23.30;99.90
1063;DHT22;520;50.932;6.962;2022-09-13T20:14:32;23.40;99.90
1063;DHT22;520;50.932;6.962;2022-09-13T20:17:00;23.30;99.90
1063;DHT22;520;50.932;6.962;2022-09-13T20:19:28;23.30;99.90
1063;DHT22;520;50.932;6.962;2022-09-13T20:22:07;23.20;99.90
1063;DHT22;520;50.932;6.962;2022-09-13T20:24:35;23.00;99.90
1063;DHT22;520;50.932;6.962;2022-09-13T20:27:02;22.90;99.90
1063;DHT22;520;50.932;6.962;2022-09-13T20:29:29;22.80;99.90
1063;DHT22;520;50.932;6.962;2022-09-13T20:31:57;22.60;99.90
1063;DHT22;520;50.932;6.962;2022-09-13T20:34:25;22.50;99.90
1063;DHT22;520;50.932;6.962;2022-09-13T20:36:52;22.70;99.90
1063;DHT22;520;50.932;6.962;2022-09-13T20:39:19;22.70;99.90
1063;DHT22;520;50.932;6.962;2022-09-13T20:41:46;22.80;99.90
1063;DHT22;520;50.932;6.962;2022-09-13T20:44:15;22.70;99.90
1063;DHT22;520;50.932;6.962;2022-09-13T20:46:42;22.60;99.90
1063;DHT22;520;50.932;6.962;2022-09-13T20:49:08;22.50;99.90
1063;DHT22;520;50.932;6.962;2022-09-13T20:51:35;22.50;99.90
1063;DHT22;520;50.932;6.962;2022-09-13T20:54:03;22.50;99.90
1063;DHT22;520;50.932;6.962;2022-09-13T20:56:30;22.40;99.90
1063;DHT22;520;50.932;6.962;2022-09-13T20:59:00;22.30;99.90
1063;DHT22;520;50.932;6.962;2022-09-13T21:01:29;22.40;99.90
1063;DHT22;520;50.932;6.962;2022-09-13T21:03:58;22.30;99.90
1063;DHT22;520;50.932;6.962;2022-09-13T21:06:28;22.30;99.90
1063;DHT22;520;50.932;6.962;2022-09-13T21:08:55;22.30;99.90